createdAt,value
2019-05-23T00:00:09.335Z,9.60
2019-05-23T00:05:06.389Z,9.50
2019-05-23T00:10:02.712Z,9.60
2019-05-23T00:15:10.677Z,9.50
2019-05-23T00:20:07.329Z,9.40
2019-05-23T00:25:01.814Z,9.20
2019-05-23T00:29:58.053Z,9.20
2019-05-23T00:34:54.712Z,9.20
2019-05-23T00:39:49.333Z,9.20
2019-05-23T00:44:52.368Z,9.10
2019-05-23T00:49:47.163Z,9.00
2019-05-23T00:54:48.358Z,9.00
2019-05-23T00:59:49.068Z,8.90
2019-05-23T01:04:42.782Z,8.90
2019-05-23T01:09:38.322Z,8.90
2019-05-23T01:19:46.997Z,8.80
2019-05-23T01:24:47.756Z,8.80
2019-05-23T01:29:49.635Z,8.80
2019-05-23T01:34:42.147Z,8.70
2019-05-23T01:39:35.865Z,8.70
2019-05-23T01:44:31.175Z,8.60
2019-05-23T01:49:27.420Z,8.50
2019-05-23T01:54:24.905Z,8.50
2019-05-23T01:59:20.312Z,8.50
2019-05-23T02:04:16.388Z,8.60
2019-05-23T02:09:11.559Z,8.60
2019-05-23T02:14:08.038Z,8.50
2019-05-23T02:19:03.988Z,8.50
2019-05-23T02:23:57.934Z,8.60
2019-05-23T02:28:52.857Z,8.60
2019-05-23T02:33:47.307Z,8.50
2019-05-23T02:38:54.365Z,8.60
2019-05-23T02:43:57.250Z,8.60
2019-05-23T02:49:00.952Z,8.60
2019-05-23T02:53:56.165Z,8.60
2019-05-23T02:58:59.536Z,8.50
2019-05-23T03:03:56.277Z,8.70
2019-05-23T03:08:52.691Z,8.80
2019-05-23T03:13:48.533Z,8.80
2019-05-23T03:18:44.589Z,8.80
2019-05-23T03:23:38.604Z,8.80
2019-05-23T03:28:43.559Z,8.80
2019-05-23T03:33:38.839Z,8.90
2019-05-23T03:38:40.348Z,8.70
2019-05-23T03:43:35.874Z,8.70
2019-05-23T03:48:29.525Z,8.80
2019-05-23T03:53:25.516Z,8.80
2019-05-23T03:58:20.786Z,8.90
2019-05-23T04:03:15.328Z,8.80
2019-05-23T04:08:10.958Z,8.80
2019-05-23T04:13:05.245Z,8.80
2019-05-23T04:17:59.158Z,8.90
2019-05-23T04:22:53.304Z,8.90
2019-05-23T04:27:47.285Z,11.00
2019-05-23T04:32:41.240Z,9.10
2019-05-23T04:37:35.133Z,9.30
2019-05-23T04:42:29.713Z,9.40
2019-05-23T04:47:24.425Z,9.50
2019-05-23T04:52:20.982Z,9.60
2019-05-23T04:57:16.450Z,9.60
2019-05-23T05:02:24.762Z,9.70
2019-05-23T05:07:06.409Z,9.80
2019-05-23T05:12:00.519Z,10.00
2019-05-23T05:16:56.987Z,10.40
2019-05-23T05:21:50.533Z,10.60
2019-05-23T05:26:44.158Z,10.90
2019-05-23T05:31:37.773Z,11.00
2019-05-23T05:36:32.708Z,11.30
2019-05-23T05:41:26.975Z,11.70
2019-05-23T05:46:27.513Z,11.90
2019-05-23T05:51:34.276Z,12.00
2019-05-23T05:56:28.105Z,12.40
2019-05-23T06:01:33.272Z,12.30
2019-05-23T06:06:29.266Z,12.70
2019-05-23T06:11:22.898Z,13.40
2019-05-23T06:16:17.286Z,13.50
2019-05-23T06:21:13.808Z,13.80
2019-05-23T06:26:09.731Z,13.70
2019-05-23T06:31:03.625Z,13.80
2019-05-23T06:35:57.175Z,14.00
2019-05-23T06:40:54.498Z,14.30
2019-05-23T06:45:51.128Z,14.60
2019-05-23T06:50:45.089Z,14.60
2019-05-23T06:55:38.717Z,14.80
2019-05-23T07:00:32.605Z,11.90
2019-05-23T07:05:32.626Z,15.40
2019-05-23T07:10:35.531Z,16.20
2019-05-23T07:15:29.648Z,16.00
2019-05-23T07:20:23.266Z,15.90
2019-05-23T07:25:17.315Z,16.30
2019-05-23T07:30:13.986Z,16.20
2019-05-23T07:35:07.680Z,16.20
2019-05-23T07:40:01.241Z,16.40
2019-05-23T07:44:56.690Z,16.30
2019-05-23T07:49:56.797Z,16.70
2019-05-23T07:54:58.070Z,16.90
2019-05-23T07:59:51.948Z,17.00
2019-05-23T08:04:46.085Z,17.60
2019-05-23T08:09:40.628Z,17.90
2019-05-23T08:14:34.730Z,17.90
2019-05-23T08:19:28.549Z,17.70
2019-05-23T08:24:22.277Z,17.70
2019-05-23T08:29:25.847Z,17.60
2019-05-23T08:34:17.868Z,17.80
2019-05-23T08:39:22.852Z,18.10
2019-05-23T08:44:17.767Z,18.20
2019-05-23T08:49:12.956Z,18.90
2019-05-23T08:54:06.640Z,18.90
2019-05-23T08:59:00.557Z,18.90
2019-05-23T09:03:55.755Z,18.90
2019-05-23T09:08:51.117Z,19.50
2019-05-23T09:13:45.891Z,19.60
2019-05-23T09:18:39.441Z,19.70
2019-05-23T09:23:39.238Z,20.40
2019-05-23T09:28:32.954Z,20.70
2019-05-23T09:33:32.537Z,20.60
2019-05-23T09:38:26.112Z,21.30
2019-05-23T09:43:19.732Z,21.20
2019-05-23T09:48:13.291Z,21.50
2019-05-23T09:53:07.240Z,21.30
2019-05-23T09:58:01.693Z,21.50
2019-05-23T10:02:58.166Z,22.40
2019-05-23T10:07:54.466Z,22.40
2019-05-23T10:12:51.061Z,22.20
2019-05-23T10:17:44.669Z,22.50
2019-05-23T10:22:38.236Z,22.80
2019-05-23T10:27:31.861Z,23.00
2019-05-23T10:32:26.559Z,23.00
2019-05-23T10:37:22.392Z,23.30
2019-05-23T10:42:16.015Z,22.90
2019-05-23T10:47:09.928Z,23.00
2019-05-23T10:52:03.740Z,23.10
2019-05-23T10:57:00.436Z,23.00
2019-05-23T11:01:55.827Z,23.70
2019-05-23T11:06:49.324Z,24.20
2019-05-23T11:11:43.198Z,23.80
2019-05-23T11:16:36.931Z,23.90
2019-05-23T11:21:34.196Z,24.10
2019-05-23T11:26:27.910Z,24.10
2019-05-23T11:31:22.544Z,24.60
2019-05-23T11:36:33.725Z,24.20
2019-05-23T11:41:11.873Z,23.90
2019-05-23T11:46:24.452Z,23.90
2019-05-23T11:51:19.574Z,24.20
2019-05-23T11:56:13.280Z,23.70
2019-05-23T12:01:20.495Z,24.60
2019-05-23T12:06:08.217Z,24.50
2019-05-23T12:11:01.797Z,23.50
2019-05-23T12:16:49.886Z,23.90
2019-05-23T12:21:44.424Z,24.30
2019-05-23T12:26:38.048Z,23.90
2019-05-23T12:31:31.722Z,24.20
2019-05-23T12:36:25.432Z,24.30
2019-05-23T12:41:19.002Z,24.10
2019-05-23T12:46:12.577Z,24.50
2019-05-23T12:51:07.987Z,25.40
2019-05-23T12:56:02.053Z,24.40
2019-05-23T13:00:57.606Z,24.20
2019-05-23T13:05:51.838Z,23.60
2019-05-23T13:10:45.557Z,24.70
2019-05-23T13:15:39.150Z,24.70
2019-05-23T13:20:33.009Z,24.30
2019-05-23T13:25:27.569Z,24.00
2019-05-23T13:30:21.128Z,23.90
2019-05-23T13:35:15.137Z,23.70
2019-05-23T13:40:10.244Z,23.50
2019-05-23T13:45:07.302Z,24.30
2019-05-23T13:50:01.188Z,25.10
2019-05-23T13:54:55.817Z,24.30
2019-05-23T13:59:49.456Z,24.60
2019-05-23T14:04:43.173Z,25.60
2019-05-23T14:09:37.201Z,26.60
2019-05-23T14:14:30.988Z,25.70
2019-05-23T14:19:29.318Z,24.50
2019-05-23T14:24:22.109Z,24.20
2019-05-23T14:29:15.735Z,24.00
2019-05-23T14:34:11.508Z,24.20
2019-05-23T14:39:09.002Z,23.60
2019-05-23T14:44:02.893Z,23.20
2019-05-23T14:49:08.154Z,23.60
2019-05-23T14:54:09.363Z,23.80
2019-05-23T14:59:03.137Z,23.30
2019-05-23T15:03:57.015Z,23.50
2019-05-23T15:08:56.248Z,23.30
2019-05-23T15:13:52.722Z,23.80
2019-05-23T15:18:46.261Z,24.00
2019-05-23T15:23:39.760Z,24.20
2019-05-23T15:28:33.379Z,23.50
2019-05-23T15:33:26.891Z,23.60
2019-05-23T15:38:22.669Z,23.40
2019-05-23T15:43:16.678Z,23.00
2019-05-23T15:48:10.627Z,22.60
2019-05-23T15:53:08.748Z,23.00
2019-05-23T15:58:04.215Z,22.90
2019-05-23T16:02:59.777Z,23.00
2019-05-23T16:07:53.495Z,22.70
2019-05-23T16:12:47.026Z,22.70
2019-05-23T16:17:40.732Z,22.60
2019-05-23T16:22:34.289Z,22.60
2019-05-23T16:27:28.029Z,22.80
2019-05-23T16:32:21.688Z,22.90
2019-05-23T16:37:15.849Z,22.70
2019-05-23T16:42:10.357Z,22.10
2019-05-23T16:47:04.806Z,22.00
2019-05-23T16:51:58.554Z,22.10
2019-05-23T16:57:03.011Z,21.60
2019-05-23T17:02:06.459Z,21.50
2019-05-23T17:07:10.460Z,21.10
2019-05-23T17:12:18.232Z,20.90
2019-05-23T17:17:49.425Z,20.90
2019-05-23T17:22:36.424Z,20.70
2019-05-23T17:27:41.432Z,20.50
2019-05-23T17:32:36.095Z,20.50
2019-05-23T17:37:29.727Z,20.10
2019-05-23T17:42:23.820Z,19.90
2019-05-23T17:47:17.432Z,19.90
2019-05-23T17:52:11.531Z,19.80
2019-05-23T17:57:06.598Z,19.60
2019-05-23T18:02:00.473Z,19.30
2019-05-23T18:06:54.368Z,19.10
2019-05-23T18:11:47.846Z,19.30
2019-05-23T18:16:42.914Z,19.30
2019-05-23T18:21:37.364Z,19.20
2019-05-23T18:26:31.488Z,19.20
2019-05-23T18:31:26.743Z,19.00
2019-05-23T18:36:21.248Z,18.90
2019-05-23T18:41:14.949Z,18.70
2019-05-23T18:46:13.023Z,18.60
2019-05-23T18:51:06.681Z,18.50
2019-05-23T18:56:00.400Z,18.30
2019-05-23T19:00:58.936Z,18.10
2019-05-23T19:05:52.875Z,18.00
2019-05-23T19:10:48.472Z,17.80
2019-05-23T19:15:42.514Z,17.60
2019-05-23T19:20:37.086Z,17.40
2019-05-23T19:25:30.648Z,17.10
2019-05-23T19:30:25.121Z,17.20
2019-05-23T19:35:19.187Z,17.10
2019-05-23T19:40:13.614Z,16.90
2019-05-23T19:45:08.159Z,16.90
2019-05-23T19:50:01.771Z,16.70
2019-05-23T19:54:55.437Z,16.60
2019-05-23T19:59:49.237Z,16.40
2019-05-23T20:04:49.529Z,16.30
2019-05-23T20:09:52.478Z,16.10
2019-05-23T20:14:46.018Z,15.90
2019-05-23T20:19:40.535Z,15.70
2019-05-23T20:24:34.135Z,15.60
2019-05-23T20:29:27.914Z,15.30
2019-05-23T20:34:21.727Z,15.20
2019-05-23T20:39:17.232Z,15.10
2019-05-23T20:44:10.717Z,15.00
2019-05-23T20:49:04.612Z,14.90
2019-05-23T20:53:59.255Z,14.80
2019-05-23T20:58:52.809Z,14.60
2019-05-23T21:03:47.068Z,14.70
2019-05-23T21:08:41.764Z,14.50
2019-05-23T21:13:41.381Z,14.30
2019-05-23T21:18:35.004Z,14.10
2019-05-23T21:23:28.496Z,14.10
2019-05-23T21:28:22.899Z,13.80
2019-05-23T21:33:16.633Z,13.90
2019-05-23T21:38:19.276Z,13.70
2019-05-23T21:43:13.955Z,13.60
2019-05-23T21:48:09.667Z,13.50
2019-05-23T21:53:03.580Z,13.50
2019-05-23T21:58:03.222Z,13.40
2019-05-23T22:02:58.898Z,13.30
2019-05-23T22:07:52.510Z,13.20
2019-05-23T22:13:01.920Z,13.10
2019-05-23T22:17:44.324Z,13.10
2019-05-23T22:22:43.309Z,13.00
2019-05-23T22:27:37.121Z,12.90
2019-05-23T22:32:38.765Z,12.90
2019-05-23T22:37:33.457Z,12.80
2019-05-23T22:42:29.189Z,12.80
2019-05-23T22:47:22.911Z,12.50
2019-05-23T22:52:16.461Z,12.70
2019-05-23T22:57:12.796Z,12.60
2019-05-23T23:02:08.009Z,12.50
2019-05-23T23:07:02.593Z,12.40
2019-05-23T23:11:56.240Z,12.40
2019-05-23T23:16:59.902Z,12.40
2019-05-23T23:21:53.443Z,12.30
2019-05-23T23:26:49.588Z,12.30
2019-05-23T23:31:43.195Z,12.10
2019-05-23T23:36:36.644Z,12.10
2019-05-23T23:41:30.157Z,12.10
2019-05-23T23:46:42.132Z,12.10
2019-05-23T23:51:53.337Z,12.10
2019-05-23T23:57:05.431Z,12.00
